createdAt,value
2022-10-07T00:07:59.561Z,7.22
2022-10-07T00:23:06.426Z,6.99
2022-10-07T00:36:51.247Z,6.93
2022-10-07T00:50:12.758Z,6.95
2022-10-07T00:56:36.113Z,6.12
2022-10-07T01:02:36.316Z,6.54
2022-10-07T01:16:26.750Z,6.40
2022-10-07T01:30:13.335Z,6.60
2022-10-07T01:36:12.728Z,6.79
2022-10-07T02:46:08.229Z,5.50
2022-10-07T02:52:31.668Z,5.70
2022-10-07T03:46:59.171Z,5.26
2022-10-07T03:53:00.778Z,5.48
2022-10-07T03:59:02.273Z,5.45
2022-10-07T04:36:22.266Z,4.55
2022-10-07T04:50:48.608Z,4.84
2022-10-07T05:36:38.492Z,4.17
2022-10-07T06:30:56.804Z,5.24
2022-10-07T06:37:18.137Z,5.45
2022-10-07T06:51:03.780Z,5.74
2022-10-07T06:58:17.671Z,5.85
2022-10-07T08:08:15.120Z,7.98
2022-10-07T08:14:18.264Z,8.21
2022-10-07T08:20:20.239Z,8.34
2022-10-07T08:26:24.549Z,8.66
2022-10-07T08:57:11.802Z,9.78
2022-10-07T09:03:10.414Z,10.00
2022-10-07T09:39:30.780Z,11.10
2022-10-07T09:46:16.240Z,11.24
2022-10-07T10:01:17.213Z,11.55
2022-10-07T10:06:52.968Z,11.75
2022-10-07T10:12:54.881Z,11.84
2022-10-07T10:19:14.508Z,11.94
2022-10-07T10:31:39.161Z,12.09
2022-10-07T10:37:18.777Z,12.35
2022-10-07T10:43:29.431Z,12.37
2022-10-07T10:58:26.064Z,12.67
2022-10-07T11:04:36.652Z,12.84
2022-10-07T11:10:57.577Z,12.88
2022-10-07T11:32:03.921Z,13.07
2022-10-07T11:38:04.702Z,13.00
2022-10-07T11:44:08.674Z,13.26
2022-10-07T11:50:29.684Z,13.42
2022-10-07T12:11:26.395Z,13.58
2022-10-07T12:17:47.793Z,13.76
2022-10-07T12:23:45.378Z,13.68
2022-10-07T12:38:54.660Z,13.89
2022-10-07T12:45:16.700Z,13.83
2022-10-07T13:21:30.864Z,13.98
2022-10-07T13:36:28.451Z,13.94
2022-10-07T14:06:59.047Z,13.84
2022-10-07T14:13:01.429Z,13.82
2022-10-07T14:18:58.972Z,13.80
2022-10-07T14:40:37.945Z,13.77
2022-10-07T14:55:33.995Z,13.75
2022-10-07T15:17:14.635Z,13.53
2022-10-07T15:32:11.521Z,13.27
2022-10-07T16:11:47.528Z,12.35
2022-10-07T16:17:47.313Z,12.21
2022-10-07T16:39:05.746Z,11.74
2022-10-07T16:45:05.647Z,11.64
2022-10-07T16:51:03.682Z,11.52
2022-10-07T16:57:07.543Z,11.44
2022-10-07T17:10:23.939Z,11.42
2022-10-07T17:15:31.601Z,11.40
2022-10-07T17:20:37.654Z,11.32
2022-10-07T17:25:46.439Z,11.27
2022-10-07T17:30:54.681Z,11.26
2022-10-07T17:48:30.928Z,10.72
2022-10-07T17:53:39.843Z,10.66
2022-10-07T17:58:47.737Z,10.64
2022-10-07T18:03:57.848Z,10.69
2022-10-07T18:17:17.521Z,10.59
2022-10-07T18:22:29.237Z,10.49
2022-10-07T18:27:36.863Z,10.36
2022-10-07T18:32:43.902Z,10.36
2022-10-07T18:38:13.224Z,10.33
2022-10-07T18:43:20.143Z,10.37
2022-10-07T18:48:26.999Z,10.37
2022-10-07T18:53:39.500Z,10.24
2022-10-07T18:58:53.611Z,10.11
2022-10-07T19:04:05.309Z,10.15
2022-10-07T19:09:20.245Z,10.08
2022-10-07T19:28:52.901Z,9.86
2022-10-07T19:34:02.620Z,9.76
2022-10-07T19:39:10.794Z,9.76
2022-10-07T19:44:18.573Z,9.81
2022-10-07T19:49:25.108Z,9.65
2022-10-07T19:54:36.516Z,9.56
2022-10-07T19:59:44.793Z,9.55
2022-10-07T20:04:56.078Z,9.43
2022-10-07T20:10:04.773Z,9.39
2022-10-07T20:15:13.749Z,9.42
2022-10-07T20:20:21.353Z,9.29
2022-10-07T20:25:27.647Z,9.39
2022-10-07T20:30:36.718Z,9.27
2022-10-07T20:35:44.005Z,9.30
2022-10-07T20:41:26.451Z,9.31
2022-10-07T20:46:34.754Z,9.28
2022-10-07T20:51:41.342Z,9.31
2022-10-07T20:56:49.202Z,9.21
2022-10-07T21:01:57.346Z,9.23
2022-10-07T21:07:03.679Z,9.21
2022-10-07T21:12:14.015Z,9.17
2022-10-07T21:17:21.961Z,9.18
2022-10-07T21:22:28.699Z,9.18
2022-10-07T21:27:35.221Z,9.11
2022-10-07T21:32:42.879Z,9.10
2022-10-07T21:37:49.353Z,9.10
2022-10-07T21:42:55.725Z,9.02
2022-10-07T21:48:03.503Z,9.05
2022-10-07T21:53:10.039Z,8.92
2022-10-07T21:58:20.796Z,8.87
2022-10-07T22:03:35.060Z,8.75
2022-10-07T22:08:53.050Z,8.81
2022-10-07T22:14:12.119Z,8.80
2022-10-07T22:19:23.291Z,8.80
2022-10-07T22:24:30.065Z,8.83
2022-10-07T22:29:38.230Z,8.79
2022-10-07T22:35:02.748Z,8.78
2022-10-07T22:40:10.696Z,8.69
2022-10-07T22:45:17.514Z,8.71
2022-10-07T22:50:25.241Z,8.74
2022-10-07T22:55:31.967Z,8.76
2022-10-07T23:00:38.634Z,8.53
2022-10-07T23:05:49.668Z,8.56
2022-10-07T23:10:59.374Z,8.55
2022-10-07T23:16:13.043Z,8.51
2022-10-07T23:21:28.474Z,8.52
2022-10-07T23:26:36.317Z,8.43
2022-10-07T23:31:42.584Z,8.53
2022-10-07T23:36:50.275Z,8.41
2022-10-07T23:41:56.496Z,8.26
2022-10-07T23:47:02.990Z,8.32
2022-10-07T23:52:10.623Z,8.39
2022-10-07T23:57:16.964Z,8.36
